Time;durP1;ratioP1;P1;durP2;ratioP2;P2;SDS_P1;SDS_P2;PMS_P1;PMS_P2;Temp;Humidity;BMP_temperature;BMP_pressure;BME280_temperature;BME280_humidity;BME280_pressure;Samples;Min_cycle;Max_cycle;Signal;HPM_P1;HPM_P2
2023/08/16 00:00:19;;;;;;;18.88;7.75;;;;;;;19.18;100.00;101580.59;5012396;28;20041;-78
2023/08/16 00:02:45;;;;;;;22.55;7.72;;;;;;;19.02;100.00;101579.41;5016933;28;20033;-79
2023/08/16 00:05:11;;;;;;;32.15;8.40;;;;;;;19.00;100.00;101575.06;4978978;28;20041;-78
2023/08/16 00:07:38;;;;;;;14.38;7.65;;;;;;;19.06;100.00;101571.63;5024509;28;20048;-78
2023/08/16 00:10:10;;;;;;;21.02;8.55;;;;;;;19.01;100.00;101561.00;5000056;28;20033;-78
2023/08/16 00:12:38;;;;;;;34.67;9.10;;;;;;;19.01;100.00;101563.78;5026486;28;20243;-78
2023/08/16 00:15:06;;;;;;;21.48;8.25;;;;;;;19.00;100.00;101572.28;5023815;28;20395;-79
2023/08/16 00:17:32;;;;;;;20.58;8.68;;;;;;;18.88;100.00;101572.50;5006602;28;20057;-79
2023/08/16 00:19:57;;;;;;;20.52;8.40;;;;;;;18.84;100.00;101575.75;4986529;28;20021;-79
2023/08/16 00:22:23;;;;;;;19.55;8.85;;;;;;;18.79;100.00;101570.66;4995017;28;20033;-78
2023/08/16 00:24:48;;;;;;;20.92;8.48;;;;;;;19.00;100.00;101570.34;5026724;28;20037;-79
2023/08/16 00:27:14;;;;;;;25.60;10.48;;;;;;;18.88;100.00;101560.53;4989034;28;20083;-79
2023/08/16 00:29:39;;;;;;;29.80;9.25;;;;;;;18.94;100.00;101550.69;5016045;28;20037;-79
2023/08/16 00:32:07;;;;;;;22.70;10.02;;;;;;;18.90;100.00;101555.69;5015534;28;20033;-79
2023/08/16 00:34:33;;;;;;;23.40;10.27;;;;;;;18.86;100.00;101557.94;5001064;28;20034;-79
2023/08/16 00:37:00;;;;;;;31.05;12.68;;;;;;;18.90;100.00;101562.13;4977589;28;20037;-79
2023/08/16 00:39:27;;;;;;;32.05;11.63;;;;;;;18.87;100.00;101558.78;5004837;28;20033;-78
2023/08/16 00:41:53;;;;;;;39.03;10.50;;;;;;;18.88;100.00;101561.41;4981164;28;20059;-78
2023/08/16 00:44:18;;;;;;;31.75;11.38;;;;;;;18.71;100.00;101567.81;4996979;28;20168;-79
2023/08/16 00:46:44;;;;;;;30.15;11.68;;;;;;;18.77;100.00;101582.94;4995882;28;20116;-79
2023/08/16 00:49:10;;;;;;;26.15;11.38;;;;;;;19.00;100.00;101578.69;5008182;28;20029;-79
2023/08/16 00:51:36;;;;;;;27.48;11.73;;;;;;;18.95;100.00;101574.66;5013188;28;20108;-78
2023/08/16 00:54:02;;;;;;;25.70;10.35;;;;;;;19.06;100.00;101586.38;5004995;28;20033;-78
2023/08/16 00:56:28;;;;;;;23.42;10.23;;;;;;;18.98;100.00;101571.56;5023141;28;20041;-79
2023/08/16 00:58:54;;;;;;;31.00;12.13;;;;;;;18.96;100.00;101570.88;5031298;28;20026;-78
2023/08/16 01:01:19;;;;;;;38.95;11.70;;;;;;;19.06;100.00;101572.50;5018418;28;20040;-79
2023/08/16 01:03:46;;;;;;;35.20;12.30;;;;;;;19.04;100.00;101574.56;5014847;28;20436;-78
2023/08/16 01:06:11;;;;;;;38.63;15.32;;;;;;;19.14;100.00;101571.72;5004755;28;20041;-78
2023/08/16 01:08:37;;;;;;;36.47;13.35;;;;;;;19.10;100.00;101579.50;4992794;28;20483;-79
2023/08/16 01:11:21;;;;;;;51.22;15.63;;;;;;;19.06;100.00;101572.50;5012447;28;20060;-79
2023/08/16 01:13:53;;;;;;;45.85;15.20;;;;;;;18.98;100.00;101566.03;5007624;28;20049;-79
2023/08/16 01:16:22;;;;;;;37.42;13.00;;;;;;;19.12;100.00;101568.22;5022696;28;20025;-79
2023/08/16 01:18:50;;;;;;;37.25;13.30;;;;;;;19.06;100.00;101579.97;5015687;28;20052;-78
2023/08/16 01:21:17;;;;;;;43.60;14.30;;;;;;;18.98;100.00;101572.44;5007304;28;20034;-79
2023/08/16 01:23:57;;;;;;;41.60;17.10;;;;;;;19.01;100.00;101576.81;4999343;28;20120;-79
2023/08/16 01:26:30;;;;;;;52.53;18.27;;;;;;;19.07;100.00;101588.13;5024135;28;20064;-79
2023/08/16 01:28:57;;;;;;;61.10;20.90;;;;;;;19.13;100.00;101592.16;5013445;28;20026;-79
2023/08/16 01:31:23;;;;;;;50.10;17.95;;;;;;;19.08;100.00;101589.88;5014071;28;20110;-79
2023/08/16 01:33:48;;;;;;;47.13;16.55;;;;;;;19.08;100.00;101595.41;5010701;28;20993;-78
2023/08/16 01:36:14;;;;;;;49.45;15.50;;;;;;;19.00;100.00;101611.13;4990277;28;20038;-79
2023/08/16 01:38:39;;;;;;;31.50;12.70;;;;;;;19.04;100.00;101610.66;5021544;28;20080;-79
2023/08/16 01:41:16;;;;;;;32.55;12.13;;;;;;;19.07;100.00;101610.34;5012238;28;20506;-79
2023/08/16 01:43:44;;;;;;;24.50;11.02;;;;;;;18.97;100.00;101620.66;5020704;28;20049;-79
2023/08/16 01:46:11;;;;;;;19.35;11.32;;;;;;;19.01;100.00;101618.44;5025140;28;20029;-78
2023/08/16 01:48:38;;;;;;;26.63;11.57;;;;;;;19.17;100.00;101610.28;5015552;28;20030;-79
2023/08/16 01:51:04;;;;;;;35.42;11.75;;;;;;;19.15;100.00;101605.88;5023129;28;20476;-79
2023/08/16 01:53:31;;;;;;;28.48;11.20;;;;;;;19.21;100.00;101608.91;5013318;28;20120;-79
2023/08/16 01:55:57;;;;;;;32.78;11.63;;;;;;;19.25;100.00;101609.44;5018656;28;20026;-78
2023/08/16 01:58:24;;;;;;;24.33;11.25;;;;;;;19.18;100.00;101609.22;5016782;28;20377;-78
2023/08/16 02:00:50;;;;;;;28.10;11.38;;;;;;;19.18;100.00;101611.13;5001562;28;20481;-79
2023/08/16 02:03:16;;;;;;;22.65;10.95;;;;;;;19.09;100.00;101613.81;5005006;28;20045;-79
2023/08/16 02:05:42;;;;;;;22.15;11.77;;;;;;;19.14;100.00;101610.59;5009094;28;20029;-79
2023/08/16 02:08:10;;;;;;;28.65;12.40;;;;;;;19.19;100.00;101619.28;5012507;28;20030;-79
2023/08/16 02:10:36;;;;;;;23.38;11.30;;;;;;;19.17;100.00;101615.81;5010120;28;20030;-79
2023/08/16 02:13:01;;;;;;;24.13;11.43;;;;;;;19.08;100.00;101605.66;5012507;28;20044;-79
2023/08/16 02:15:28;;;;;;;31.13;13.27;;;;;;;18.92;100.00;101606.38;5012044;28;20400;-79
2023/08/16 02:17:53;;;;;;;27.17;12.45;;;;;;;18.86;100.00;101610.66;5000405;28;20068;-79
2023/08/16 02:20:19;;;;;;;26.70;13.68;;;;;;;18.81;100.00;101601.91;5012864;28;20496;-82
2023/08/16 02:22:46;;;;;;;30.83;12.48;;;;;;;18.84;100.00;101607.16;5018204;28;20107;-82
2023/08/16 02:25:12;;;;;;;27.58;11.52;;;;;;;18.91;100.00;101601.88;5014824;28;20124;-82
2023/08/16 02:27:38;;;;;;;28.25;11.45;;;;;;;18.91;100.00;101607.41;5008842;28;20113;-82
2023/08/16 02:30:04;;;;;;;26.70;11.02;;;;;;;18.84;100.00;101607.16;5021937;28;20034;-83
2023/08/16 02:32:30;;;;;;;26.65;10.38;;;;;;;18.92;100.00;101596.16;5014456;28;20029;-82
2023/08/16 02:34:57;;;;;;;29.63;10.32;;;;;;;18.94;100.00;101600.66;5005752;28;20031;-82
2023/08/16 02:37:23;;;;;;;27.63;10.93;;;;;;;18.94;100.00;101597.88;5006336;28;20039;-83
2023/08/16 02:39:49;;;;;;;35.20;9.50;;;;;;;18.83;100.00;101597.09;5010448;28;20460;-83
2023/08/16 02:42:15;;;;;;;28.25;9.85;;;;;;;18.81;100.00;101599.13;4994989;28;20038;-82
2023/08/16 02:44:42;;;;;;;32.75;10.55;;;;;;;18.86;100.00;101595.91;5016552;28;20041;-83
2023/08/16 02:47:08;;;;;;;27.60;10.48;;;;;;;18.89;100.00;101590.06;5024272;28;20037;-83
2023/08/16 02:49:34;;;;;;;28.27;10.50;;;;;;;18.78;100.00;101585.56;5021085;28;20406;-83
2023/08/16 02:52:00;;;;;;;32.13;12.80;;;;;;;18.71;100.00;101581.69;5020517;28;20110;-83
2023/08/16 02:54:25;;;;;;;30.90;13.13;;;;;;;18.54;100.00;101578.72;5015612;28;20065;-83
2023/08/16 02:56:51;;;;;;;26.40;11.85;;;;;;;18.41;100.00;101589.28;5011887;28;20042;-83
2023/08/16 02:59:17;;;;;;;28.08;11.55;;;;;;;18.34;100.00;101602.03;5005898;28;20037;-83
2023/08/16 03:01:42;;;;;;;29.02;12.57;;;;;;;18.18;100.00;101611.00;5000449;28;20041;-83
2023/08/16 03:04:08;;;;;;;33.05;12.13;;;;;;;18.23;100.00;101608.66;4995017;28;20037;-82
2023/08/16 03:06:33;;;;;;;31.95;11.90;;;;;;;18.26;100.00;101616.66;5024261;28;20037;-83
2023/08/16 03:09:00;;;;;;;32.72;11.65;;;;;;;18.31;100.00;101613.44;5008037;28;20125;-82
2023/08/16 03:11:25;;;;;;;31.95;13.32;;;;;;;18.42;100.00;101607.69;5002824;28;20041;-82
2023/08/16 03:13:51;;;;;;;33.65;13.75;;;;;;;18.52;100.00;101589.09;5023299;28;20038;-82
2023/08/16 03:16:17;;;;;;;30.15;14.32;;;;;;;18.48;100.00;101595.09;5009896;28;20037;-83
2023/08/16 03:18:43;;;;;;;32.28;13.65;;;;;;;18.45;100.00;101596.28;5009481;28;20045;-83
2023/08/16 03:21:08;;;;;;;29.15;14.18;;;;;;;18.46;100.00;101605.47;5002090;28;20061;-83
2023/08/16 03:23:34;;;;;;;30.40;14.15;;;;;;;18.43;100.00;101609.44;4987135;28;20130;-83
2023/08/16 03:25:59;;;;;;;27.65;13.73;;;;;;;18.47;100.00;101618.31;5008237;28;20120;-83
2023/08/16 03:28:25;;;;;;;36.00;14.77;;;;;;;18.44;100.00;101621.41;4997221;28;20034;-80
2023/08/16 03:30:50;;;;;;;30.40;13.60;;;;;;;18.51;100.00;101622.53;5019370;28;20017;-83
2023/08/16 03:33:16;;;;;;;30.88;13.65;;;;;;;18.53;100.00;101620.50;5018763;28;20034;-83
2023/08/16 03:35:43;;;;;;;33.03;13.25;;;;;;;18.44;100.00;101618.63;5005039;28;20041;-83
2023/08/16 03:38:08;;;;;;;28.02;13.18;;;;;;;18.51;100.00;101623.41;5013214;28;20488;-82
2023/08/16 03:40:34;;;;;;;32.92;12.93;;;;;;;18.35;100.00;101626.00;4997146;28;20032;-83
2023/08/16 03:42:59;;;;;;;26.40;12.85;;;;;;;18.30;100.00;101623.66;5029860;28;20025;-82
2023/08/16 03:45:25;;;;;;;33.83;12.95;;;;;;;18.42;100.00;101620.69;5021413;28;20096;-83
2023/08/16 03:47:53;;;;;;;26.30;12.57;;;;;;;18.31;100.00;101622.63;5006794;28;20037;-83
2023/08/16 03:50:20;;;;;;;26.38;11.95;;;;;;;18.35;100.00;101618.53;5016601;28;20037;-83
2023/08/16 03:52:46;;;;;;;26.17;12.57;;;;;;;18.37;100.00;101615.59;5026368;28;20037;-83
2023/08/16 03:55:11;;;;;;;30.98;12.70;;;;;;;18.36;100.00;101617.50;5007270;28;20519;-83
2023/08/16 03:57:36;;;;;;;42.25;12.55;;;;;;;18.40;100.00;101623.63;5006785;28;20423;-82
2023/08/16 04:00:05;;;;;;;28.20;11.90;;;;;;;18.41;100.00;101624.47;4993879;28;20041;-84
2023/08/16 04:02:30;;;;;;;23.38;12.23;;;;;;;18.40;100.00;101617.19;5002356;28;20068;-83
2023/08/16 04:05:07;;;;;;;25.00;12.38;;;;;;;18.25;100.00;101622.38;5010710;28;20049;-83
2023/08/16 04:07:33;;;;;;;22.58;11.57;;;;;;;18.22;100.00;101612.47;5013349;28;20018;-81
2023/08/16 04:09:58;;;;;;;20.92;11.88;;;;;;;18.15;100.00;101623.31;5024314;28;20033;-82
2023/08/16 04:12:24;;;;;;;21.08;11.82;;;;;;;18.08;100.00;101633.22;5014004;28;20473;-82
2023/08/16 04:14:49;;;;;;;23.90;11.63;;;;;;;18.12;100.00;101637.47;5013050;28;20062;-82
2023/08/16 04:17:14;;;;;;;29.10;12.35;;;;;;;18.18;100.00;101641.50;5025951;28;20516;-81
2023/08/16 04:19:40;;;;;;;40.30;13.05;;;;;;;18.16;100.00;101632.47;4997177;28;20045;-81
2023/08/16 04:22:05;;;;;;;33.67;13.88;;;;;;;18.12;100.00;101631.06;5023514;28;20041;-86
2023/08/16 04:24:31;;;;;;;27.73;12.45;;;;;;;18.17;100.00;101629.56;5020526;28;20091;-83
2023/08/16 04:26:57;;;;;;;29.70;13.25;;;;;;;18.17;100.00;101624.00;4986365;28;20053;-84
2023/08/16 04:29:22;;;;;;;35.72;13.43;;;;;;;18.16;100.00;101629.72;5017008;28;20488;-84
2023/08/16 04:31:48;;;;;;;28.95;12.45;;;;;;;18.15;100.00;101639.03;5012531;28;20041;-83
2023/08/16 04:34:13;;;;;;;30.95;13.30;;;;;;;18.24;100.00;101638.13;5000197;28;20045;-84
2023/08/16 04:36:39;;;;;;;26.17;12.85;;;;;;;18.20;100.00;101636.72;5012919;28;20128;-85
2023/08/16 04:39:04;;;;;;;30.77;13.63;;;;;;;18.21;100.00;101638.44;4984293;28;20033;-85
2023/08/16 04:41:30;;;;;;;33.88;13.82;;;;;;;18.14;100.00;101642.84;5013540;28;20446;-85
2023/08/16 04:43:55;;;;;;;29.17;14.50;;;;;;;18.14;100.00;101640.09;5016385;28;20132;-84
2023/08/16 04:46:21;;;;;;;29.42;14.65;;;;;;;18.00;100.00;101642.31;5001083;28;20108;-84
2023/08/16 04:48:46;;;;;;;25.30;13.05;;;;;;;18.11;100.00;101644.00;4996216;28;20068;-85
2023/08/16 04:51:12;;;;;;;29.98;13.23;;;;;;;18.16;100.00;101640.78;5004353;28;20580;-83
2023/08/16 04:53:37;;;;;;;26.63;13.50;;;;;;;18.14;100.00;101642.84;5008696;28;20034;-86
2023/08/16 04:56:03;;;;;;;32.53;14.05;;;;;;;18.16;100.00;101640.78;5027323;28;20029;-84
2023/08/16 04:58:28;;;;;;;30.38;13.60;;;;;;;18.02;100.00;101638.50;5012349;28;20042;-85
2023/08/16 05:00:56;;;;;;;39.75;14.48;;;;;;;18.02;100.00;101636.63;5011818;28;20068;-85
2023/08/16 05:03:22;;;;;;;29.40;13.98;;;;;;;18.07;100.00;101639.81;5010160;28;20436;-85
2023/08/16 05:05:48;;;;;;;30.02;13.55;;;;;;;18.09;100.00;101639.66;5030275;28;20031;-85
2023/08/16 05:08:13;;;;;;;24.98;13.20;;;;;;;18.09;100.00;101648.84;5008362;28;20127;-86
2023/08/16 05:10:39;;;;;;;31.48;13.35;;;;;;;18.03;100.00;101651.34;5006938;28;20056;-85
2023/08/16 05:13:05;;;;;;;31.02;14.38;;;;;;;18.05;100.00;101650.16;4980877;28;20120;-85
2023/08/16 05:15:31;;;;;;;32.03;13.50;;;;;;;18.08;100.00;101641.53;4998167;28;20026;-85
2023/08/16 05:17:59;;;;;;;28.52;13.77;;;;;;;18.15;100.00;101652.91;5009401;28;20064;-85
2023/08/16 05:20:24;;;;;;;33.58;14.25;;;;;;;18.12;100.00;101659.63;5016496;28;20033;-85
2023/08/16 05:22:51;;;;;;;34.13;14.10;;;;;;;18.08;100.00;101660.09;5013696;28;20037;-85
2023/08/16 05:25:16;;;;;;;33.13;13.48;;;;;;;18.01;100.00;101657.03;5009760;28;20454;-85
2023/08/16 05:27:42;;;;;;;24.77;13.25;;;;;;;17.95;100.00;101657.63;5006582;28;20038;-85
2023/08/16 05:30:08;;;;;;;30.33;14.50;;;;;;;18.09;100.00;101659.06;5009960;28;20046;-85
2023/08/16 05:32:33;;;;;;;31.10;13.05;;;;;;;18.11;100.00;101663.41;4989060;28;20571;-85
2023/08/16 05:34:58;;;;;;;26.98;12.52;;;;;;;18.15;100.00;101650.13;5003622;28;20038;-85
2023/08/16 05:37:24;;;;;;;30.58;13.25;;;;;;;18.18;100.00;101655.38;5014274;28;20064;-84
2023/08/16 05:39:50;;;;;;;29.33;12.38;;;;;;;18.34;100.00;101658.38;5013255;28;20061;-84
2023/08/16 05:42:16;;;;;;;28.52;12.32;;;;;;;18.37;100.00;101657.19;5003051;28;20056;-84
2023/08/16 05:44:41;;;;;;;26.35;12.57;;;;;;;18.39;100.00;101654.28;5008320;28;20480;-84
2023/08/16 05:47:07;;;;;;;28.42;11.60;;;;;;;18.33;100.00;101658.50;5003896;28;20246;-84
2023/08/16 05:49:32;;;;;;;20.88;11.50;;;;;;;18.48;100.00;101659.78;5012651;28;20433;-84
2023/08/16 05:51:59;;;;;;;21.60;10.75;;;;;;;18.71;100.00;101671.31;5008113;28;20046;-84
2023/08/16 05:54:24;;;;;;;20.88;10.35;;;;;;;18.82;100.00;101663.81;5013689;28;20540;-85
2023/08/16 05:56:50;;;;;;;25.52;9.95;;;;;;;19.05;100.00;101658.72;4989846;28;20159;-85
2023/08/16 05:59:15;;;;;;;21.08;9.32;;;;;;;19.31;100.00;101672.69;4999019;28;20098;-84
2023/08/16 06:01:41;;;;;;;19.95;9.32;;;;;;;19.14;100.00;101668.03;5022805;28;20049;-85
2023/08/16 06:04:06;;;;;;;14.63;8.90;;;;;;;19.12;100.00;101675.59;5015291;28;20037;-84
2023/08/16 06:06:31;;;;;;;21.08;8.70;;;;;;;19.39;100.00;101675.53;5003647;28;20041;-85
2023/08/16 06:08:57;;;;;;;22.83;9.00;;;;;;;19.52;100.00;101682.59;5020153;28;20116;-86
2023/08/16 06:11:24;;;;;;;22.27;8.60;;;;;;;19.74;100.00;101687.66;5006662;28;20030;-84
2023/08/16 06:13:50;;;;;;;20.25;7.90;;;;;;;19.54;100.00;101683.31;5012934;28;20044;-84
2023/08/16 06:16:17;;;;;;;23.63;8.40;;;;;;;19.37;100.00;101699.81;5005064;28;20375;-84
2023/08/16 06:18:43;;;;;;;16.77;8.05;;;;;;;19.39;100.00;101705.22;4989327;28;20401;-88
2023/08/16 06:21:10;;;;;;;17.92;8.05;;;;;;;19.26;100.00;101697.28;4994116;28;20041;-86
2023/08/16 06:23:36;;;;;;;23.15;8.20;;;;;;;19.16;100.00;101694.56;5012078;28;20529;-83
2023/08/16 06:26:01;;;;;;;16.73;7.47;;;;;;;19.21;100.00;101692.19;5016722;28;20029;-86
2023/08/16 06:28:27;;;;;;;17.55;8.02;;;;;;;19.22;100.00;101693.09;5013220;28;20060;-86
2023/08/16 06:30:53;;;;;;;23.48;8.13;;;;;;;19.10;100.00;101693.31;4992578;28;20079;-86
2023/08/16 06:33:22;;;;;;;21.35;8.02;;;;;;;19.13;100.00;101700.44;5012142;28;20048;-86
2023/08/16 06:35:51;;;;;;;18.00;8.32;;;;;;;19.25;100.00;101701.97;4979060;28;20050;-85
2023/08/16 06:38:18;;;;;;;15.55;6.65;;;;;;;19.27;100.00;101696.25;5020161;28;20088;-86
2023/08/16 06:40:46;;;;;;;15.10;6.85;;;;;;;19.16;100.00;101694.56;4997292;28;20105;-85
2023/08/16 06:43:12;;;;;;;16.40;6.30;;;;;;;19.24;100.00;101694.66;5017427;28;20025;-84
2023/08/16 06:45:38;;;;;;;12.68;6.05;;;;;;;19.62;100.00;101689.81;5011393;28;20031;-86
2023/08/16 06:48:04;;;;;;;14.13;5.72;;;;;;;20.23;100.00;101694.63;5026122;28;20439;-86
2023/08/16 06:50:31;;;;;;;19.90;5.20;;;;;;;20.70;100.00;101699.78;5022788;28;20033;-86
2023/08/16 06:52:56;;;;;;;12.27;4.90;;;;;;;21.13;100.00;101699.75;5020948;28;20034;-88
2023/08/16 06:55:23;;;;;;;18.20;5.60;;;;;;;21.20;100.00;101703.56;5021321;28;20060;-88
2023/08/16 06:57:50;;;;;;;16.50;5.32;;;;;;;21.37;100.00;101715.66;4987323;28;20026;-89
2023/08/16 07:00:17;;;;;;;11.95;4.95;;;;;;;20.96;100.00;101713.63;5010186;28;20029;-89
2023/08/16 07:02:43;;;;;;;21.65;5.40;;;;;;;20.24;100.00;101708.38;5019251;28;20029;-91
2023/08/16 07:05:12;;;;;;;13.02;5.43;;;;;;;21.02;100.00;101709.28;4984498;28;20045;-89
2023/08/16 07:07:38;;;;;;;15.20;5.30;;;;;;;20.78;100.00;101702.59;5006199;28;20034;-88
2023/08/16 07:10:04;;;;;;;10.77;4.85;;;;;;;20.88;100.00;101699.66;5020388;28;20037;-84
2023/08/16 07:12:31;;;;;;;18.67;4.68;;;;;;;21.25;100.00;101699.25;5021543;28;20444;-88
2023/08/16 07:14:56;;;;;;;11.52;4.57;;;;;;;20.98;100.00;101708.75;5010267;28;20029;-90
2023/08/16 07:17:23;;;;;;;14.00;4.70;;;;;;;20.99;100.00;101712.41;5024026;28;20064;-86
2023/08/16 07:19:50;;;;;;;13.77;4.97;;;;;;;20.75;100.00;101711.28;4989406;28;20049;-87
2023/08/16 07:22:16;;;;;;;11.75;4.53;;;;;;;20.73;100.00;101705.88;5015474;28;20056;-86
2023/08/16 07:24:43;;;;;;;10.60;4.72;;;;;;;20.70;100.00;101719.25;5006895;28;20419;-86
2023/08/16 07:27:08;;;;;;;14.02;4.50;;;;;;;20.54;100.00;101712.53;5028766;28;20100;-86
2023/08/16 07:29:34;;;;;;;16.85;5.63;;;;;;;20.57;100.00;101705.78;5013085;28;21844;-86
2023/08/16 07:32:00;;;;;;;15.80;5.32;;;;;;;20.48;100.00;101709.53;5021568;28;20037;-86
2023/08/16 07:34:26;;;;;;;11.32;4.68;;;;;;;21.09;100.00;101716.78;4995575;28;20061;-86
2023/08/16 07:36:52;;;;;;;13.77;5.20;;;;;;;20.78;100.00;101710.09;5030859;28;20091;-86
2023/08/16 07:39:19;;;;;;;14.23;5.07;;;;;;;20.63;100.00;101705.13;5029149;28;20029;-86
2023/08/16 07:41:44;;;;;;;14.88;5.38;;;;;;;20.63;100.00;101715.34;5028505;28;20072;-86
2023/08/16 07:44:10;;;;;;;17.95;4.57;;;;;;;20.57;100.00;101708.56;5012753;28;20036;-86
2023/08/16 07:46:35;;;;;;;15.77;4.88;;;;;;;20.92;100.00;101714.97;5014686;28;20298;-87
2023/08/16 07:49:02;;;;;;;14.95;4.88;;;;;;;20.70;100.00;101717.34;5014678;28;20032;-86
2023/08/16 07:51:28;;;;;;;12.48;4.97;;;;;;;20.73;100.00;101718.94;5007417;28;20156;-87
2023/08/16 07:53:53;;;;;;;20.30;4.95;;;;;;;20.93;100.00;101727.88;5002135;28;20559;-86
2023/08/16 07:56:18;;;;;;;13.27;5.15;;;;;;;20.87;100.00;101735.00;4997449;28;20060;-86
2023/08/16 07:58:44;;;;;;;11.18;4.40;;;;;;;20.89;100.00;101732.03;5017830;28;20030;-86
2023/08/16 08:01:09;;;;;;;12.38;4.35;;;;;;;20.80;100.00;101731.13;5007232;28;20470;-87
2023/08/16 08:03:36;;;;;;;8.98;4.70;;;;;;;20.72;100.00;101740.31;5018069;28;20038;-86
2023/08/16 08:06:03;;;;;;;13.35;4.55;;;;;;;20.90;100.00;101739.34;5002220;28;20468;-87
2023/08/16 08:08:29;;;;;;;11.13;3.90;;;;;;;21.15;100.00;101742.22;5023498;28;20388;-81
2023/08/16 08:10:55;;;;;;;13.75;4.60;;;;;;;21.21;100.00;101735.97;5019459;28;20502;-86
2023/08/16 08:13:20;;;;;;;10.52;4.13;;;;;;;21.32;100.00;101745.91;4999035;28;20033;-87
2023/08/16 08:15:47;;;;;;;9.43;4.90;;;;;;;21.35;100.00;101748.34;5020760;28;20030;-86
2023/08/16 08:18:13;;;;;;;12.55;4.10;;;;;;;21.37;100.00;101744.38;5024216;28;20052;-86
2023/08/16 08:20:38;;;;;;;16.58;4.88;;;;;;;21.69;100.00;101742.69;4999993;28;20037;-87
2023/08/16 08:23:04;;;;;;;9.52;4.10;;;;;;;21.82;100.00;101740.28;5018509;28;20026;-87
2023/08/16 08:25:30;;;;;;;18.15;4.70;;;;;;;21.83;100.00;101738.34;4995453;28;20104;-87
2023/08/16 08:27:56;;;;;;;11.63;4.88;;;;;;;22.63;100.00;101734.78;5020883;28;20033;-87
2023/08/16 08:30:23;;;;;;;13.98;4.15;;;;;;;23.60;100.00;101747.56;5011586;28;20471;-87
2023/08/16 08:32:49;;;;;;;16.90;4.47;;;;;;;24.02;100.00;101754.59;5017868;28;20124;-87
2023/08/16 08:35:15;;;;;;;13.65;4.20;;;;;;;24.20;100.00;101752.34;5018227;28;20458;-87
2023/08/16 08:37:40;;;;;;;8.50;4.15;;;;;;;24.71;100.00;101757.25;5021961;28;20079;-88
2023/08/16 08:40:06;;;;;;;10.77;4.43;;;;;;;25.77;100.00;101759.63;4998900;28;20455;-87
2023/08/16 08:42:32;;;;;;;11.07;4.35;;;;;;;25.30;100.00;101753.53;5031711;28;20458;-88
2023/08/16 08:44:59;;;;;;;16.10;4.70;;;;;;;23.94;100.00;101749.97;5009801;28;20421;-88
2023/08/16 08:47:24;;;;;;;8.70;4.80;;;;;;;23.45;100.00;101741.91;5020639;28;20030;-87
2023/08/16 08:49:50;;;;;;;12.57;4.20;;;;;;;24.22;100.00;101738.16;5028797;28;20088;-87
2023/08/16 08:52:17;;;;;;;17.73;5.38;;;;;;;23.64;100.00;101757.31;5007719;28;20062;-87
2023/08/16 08:54:46;;;;;;;10.98;4.97;;;;;;;23.60;100.00;101753.16;5011093;28;20045;-87
2023/08/16 08:57:14;;;;;;;10.93;5.05;;;;;;;23.44;100.00;101752.19;5021648;28;20051;-86
2023/08/16 08:59:45;;;;;;;12.75;4.90;;;;;;;23.24;100.00;101757.41;5007955;28;20041;-87
2023/08/16 09:02:12;;;;;;;18.63;6.03;;;;;;;23.38;100.00;101755.75;5023046;28;20026;-86
2023/08/16 09:04:39;;;;;;;14.55;5.60;;;;;;;23.17;100.00;101756.41;5014839;28;20061;-86
2023/08/16 09:07:07;;;;;;;9.10;4.80;;;;;;;24.19;100.00;101755.31;5016456;28;20021;-87
2023/08/16 09:09:34;;;;;;;12.90;5.20;;;;;;;24.12;100.00;101757.13;4990440;28;20034;-87
2023/08/16 09:12:00;;;;;;;15.68;5.75;;;;;;;23.33;100.00;101763.78;5012909;28;20476;-87
2023/08/16 09:14:27;;;;;;;12.95;5.85;;;;;;;23.24;100.00;101765.78;4980249;28;20088;-87
2023/08/16 09:16:52;;;;;;;14.00;5.03;;;;;;;23.62;100.00;101757.50;5020567;28;20049;-87
2023/08/16 09:19:18;;;;;;;17.88;6.20;;;;;;;23.84;100.00;101761.41;5001283;28;20503;-80
2023/08/16 09:21:43;;;;;;;17.70;5.80;;;;;;;23.82;100.00;101755.09;5009264;28;20042;-80
2023/08/16 09:24:09;;;;;;;12.13;5.88;;;;;;;23.27;100.00;101754.25;5010492;28;20038;-80
2023/08/16 09:26:40;;;;;;;12.70;5.07;;;;;;;23.29;100.00;101757.72;5011925;28;20060;-80
2023/08/16 09:29:06;;;;;;;11.00;5.47;;;;;;;23.14;100.00;101751.16;5021535;28;20053;-79
2023/08/16 09:31:40;;;;;;;16.80;5.25;;;;;;;24.45;100.00;101756.78;5023735;28;20041;-80
2023/08/16 09:34:06;;;;;;;10.68;4.88;;;;;;;23.92;100.00;101754.84;5021314;28;20080;-80
2023/08/16 09:36:35;;;;;;;15.48;5.13;;;;;;;23.71;100.00;101752.75;5018646;28;20042;-80
2023/08/16 09:39:02;;;;;;;13.18;4.97;;;;;;;23.12;100.00;101753.28;5006023;28;20080;-80
2023/08/16 09:41:29;;;;;;;11.25;5.07;;;;;;;24.02;100.00;101746.19;5024969;28;20021;-80
2023/08/16 09:44:08;;;;;;;12.55;4.32;;;;;;;24.59;100.00;101753.19;5019796;28;20018;-80
2023/08/16 09:46:35;;;;;;;8.00;3.55;;;;;;;24.87;100.00;101758.97;5018106;28;20033;-80
2023/08/16 09:49:06;;;;;;;9.00;4.32;;;;;;;24.58;100.00;101752.31;5022828;28;20025;-81
2023/08/16 09:51:35;;;;;;;10.90;4.10;;;;;;;24.18;100.00;101753.56;5010920;28;20108;-80
2023/08/16 09:54:07;;;;;;;8.32;4.72;;;;;;;23.72;100.00;101751.66;5014853;28;20358;-80
2023/08/16 09:56:34;;;;;;;10.87;5.20;;;;;;;23.58;100.00;101741.28;5014004;28;20040;-80
2023/08/16 09:59:00;;;;;;;16.60;5.15;;;;;;;23.97;100.00;101745.88;5020194;28;20486;-80
2023/08/16 10:01:26;;;;;;;13.82;4.78;;;;;;;23.76;100.00;101749.34;5017307;28;20034;-80
2023/08/16 10:03:55;;;;;;;13.82;4.70;;;;;;;24.03;100.00;101750.75;5021451;28;20026;-80
2023/08/16 10:06:24;;;;;;;11.90;4.35;;;;;;;24.93;100.00;101746.13;5016667;28;20021;-80
2023/08/16 10:08:53;;;;;;;7.80;3.33;;;;;;;25.21;100.00;101740.66;5012964;28;20026;-80
2023/08/16 10:11:19;;;;;;;9.05;4.55;;;;;;;24.79;100.00;101744.19;5015056;28;20061;-80
2023/08/16 10:13:45;;;;;;;10.60;4.55;;;;;;;24.61;100.00;101742.63;5001682;28;20061;-80
2023/08/16 10:16:16;;;;;;;14.10;3.95;;;;;;;24.49;100.00;101736.63;5010328;28;20026;-80
2023/08/16 10:18:43;;;;;;;11.73;3.90;;;;;;;24.67;100.00;101730.69;5021507;28;20054;-80
2023/08/16 10:21:16;;;;;;;10.20;3.72;;;;;;;24.73;100.00;101734.66;5018787;28;20387;-80
2023/08/16 10:23:47;;;;;;;11.70;3.97;;;;;;;25.05;100.00;101729.66;5021802;28;20036;-80
2023/08/16 10:26:15;;;;;;;13.45;5.03;;;;;;;24.58;100.00;101732.72;5006332;28;20033;-80
2023/08/16 10:28:54;;;;;;;15.65;4.63;;;;;;;24.45;100.00;101737.19;5012486;28;20029;-81
2023/08/16 10:31:26;;;;;;;9.27;3.53;;;;;;;24.55;100.00;101741.50;4992112;28;20058;-80
2023/08/16 10:33:55;;;;;;;13.93;3.58;;;;;;;23.85;100.00;101731.50;5021706;28;20045;-80
2023/08/16 10:36:22;;;;;;;14.65;5.22;;;;;;;24.29;100.00;101727.91;5020387;28;20049;-80
2023/08/16 10:38:56;;;;;;;10.15;4.22;;;;;;;24.17;100.00;101732.22;5018440;28;20034;-80
2023/08/16 10:41:22;;;;;;;7.43;3.22;;;;;;;24.13;100.00;101728.94;5015624;28;20026;-80
2023/08/16 10:43:54;;;;;;;10.90;3.50;;;;;;;24.02;100.00;101732.19;5013674;28;20037;-80
2023/08/16 10:46:36;;;;;;;11.93;3.53;;;;;;;24.19;100.00;101732.94;5018800;28;20446;-80
2023/08/16 10:49:06;;;;;;;12.20;3.73;;;;;;;24.38;100.00;101732.38;5007094;28;20045;-80
2023/08/16 10:51:45;;;;;;;10.10;3.20;;;;;;;24.51;100.00;101734.50;5023171;28;20069;-80
2023/08/16 10:54:11;;;;;;;12.65;3.00;;;;;;;24.79;100.00;101733.00;5019830;28;20017;-80
2023/08/16 10:56:50;;;;;;;12.40;3.75;;;;;;;24.72;100.00;101733.75;4988825;28;20042;-81
2023/08/16 10:59:17;;;;;;;11.88;4.32;;;;;;;24.71;100.00;101729.25;5017023;28;20089;-80
2023/08/16 11:01:53;;;;;;;10.18;3.92;;;;;;;24.44;100.00;101741.06;5023928;28;20033;-80
2023/08/16 11:04:19;;;;;;;6.47;3.55;;;;;;;24.38;100.00;101732.38;5016803;28;20030;-80